Time;durP1;ratioP1;P1;durP2;ratioP2;P2;SDS_P1;SDS_P2;PMS_P1;PMS_P2;Temp;Humidity;BMP_temperature;BMP_pressure;BME280_temperature;BME280_humidity;BME280_pressure;Samples;Min_cycle;Max_cycle;Signal;HPM_P1;HPM_P2
2021/03/24 00:02:16;;;;;;;5.78;2.60;;;;;;;-1.73;65.29;100401.28;1764276;80;21928;-48
2021/03/24 00:04:45;;;;;;;7.35;2.92;;;;;;;-1.70;65.18;100394.70;1729844;81;21199;-48
2021/03/24 00:07:14;;;;;;;7.70;3.10;;;;;;;-1.71;64.87;100398.19;1748003;79;21192;-48
2021/03/24 00:09:43;;;;;;;8.65;2.85;;;;;;;-1.75;64.79;100398.34;1746407;79;21132;-48
2021/03/24 00:12:13;;;;;;;6.05;2.25;;;;;;;-1.83;64.79;100402.45;1745062;79;21137;-47
2021/03/24 00:14:44;;;;;;;5.30;2.22;;;;;;;-1.91;65.04;100397.52;1747895;79;21167;-48
2021/03/24 00:17:13;;;;;;;5.45;1.87;;;;;;;-1.97;65.16;100408.08;1740426;79;21152;-47
2021/03/24 00:19:41;;;;;;;5.22;2.08;;;;;;;-2.04;65.34;100409.98;1747205;79;21146;-47
2021/03/24 00:22:09;;;;;;;4.47;2.00;;;;;;;-2.06;65.45;100408.34;1744053;79;21415;-48
2021/03/24 00:24:37;;;;;;;5.08;2.15;;;;;;;-2.10;65.41;100411.45;1743645;79;21403;-47
2021/03/24 00:27:06;;;;;;;6.60;2.15;;;;;;;-2.15;65.58;100418.55;1742794;79;21418;-48
2021/03/24 00:29:34;;;;;;;3.87;1.80;;;;;;;-2.19;65.66;100423.42;1745328;79;21153;-47
2021/03/24 00:32:03;;;;;;;5.28;2.42;;;;;;;-2.26;65.81;100426.20;1744486;79;21634;-47
2021/03/24 00:34:31;;;;;;;4.95;2.40;;;;;;;-2.29;66.02;100421.09;1749054;79;21604;-47
2021/03/24 00:36:59;;;;;;;4.95;2.17;;;;;;;-2.25;66.31;100424.00;1742673;80;21129;-47
2021/03/24 00:39:27;;;;;;;4.17;1.52;;;;;;;-2.15;66.29;100423.28;1746037;79;21749;-47
2021/03/24 00:41:55;;;;;;;6.08;1.77;;;;;;;-2.04;66.09;100429.44;1760656;80;21474;-47
2021/03/24 00:44:24;;;;;;;3.98;1.60;;;;;;;-1.96;66.01;100430.06;1763881;79;21583;-48
2021/03/24 00:46:56;;;;;;;5.10;1.87;;;;;;;-1.87;65.71;100430.25;1740678;79;21581;-48
2021/03/24 00:49:24;;;;;;;3.42;1.62;;;;;;;-1.81;65.53;100431.38;1747670;79;21676;-47
2021/03/24 00:51:53;;;;;;;3.45;1.70;;;;;;;-1.76;65.32;100433.81;1746053;79;22257;-47
2021/03/24 00:54:21;;;;;;;5.45;1.67;;;;;;;-1.76;64.96;100431.22;1734047;80;21627;-47
2021/03/24 00:56:50;;;;;;;5.05;1.90;;;;;;;-1.81;64.90;100431.38;1734620;80;21147;-48
2021/03/24 00:59:18;;;;;;;4.85;1.90;;;;;;;-1.86;64.96;100434.98;1767940;79;21526;-47
2021/03/24 01:01:50;;;;;;;4.12;1.75;;;;;;;-1.92;65.05;100437.33;1751335;80;21110;-47
2021/03/24 01:04:19;;;;;;;4.03;1.40;;;;;;;-1.97;65.27;100442.62;1760704;78;22753;-47
2021/03/24 01:06:49;;;;;;;4.55;1.85;;;;;;;-2.00;65.41;100449.67;1740040;79;21160;-48
2021/03/24 01:09:18;;;;;;;4.28;1.90;;;;;;;-2.02;65.51;100452.29;1735999;79;21462;-47
2021/03/24 01:11:48;;;;;;;4.03;1.80;;;;;;;-2.05;65.55;100451.08;1744347;79;21129;-48
2021/03/24 01:14:16;;;;;;;3.58;1.45;;;;;;;-2.09;65.70;100452.93;1735384;79;21616;-47
2021/03/24 01:16:48;;;;;;;5.85;2.25;;;;;;;-2.09;65.87;100450.77;1759925;78;21274;-49
2021/03/24 01:19:18;;;;;;;5.00;2.25;;;;;;;-2.08;65.94;100455.06;1759422;80;21755;-46
2021/03/24 01:21:46;;;;;;;4.60;2.08;;;;;;;-2.01;66.22;100458.34;1764070;79;21174;-48
2021/03/24 01:24:16;;;;;;;4.17;2.10;;;;;;;-1.93;66.11;100462.86;1745712;80;21518;-47
2021/03/24 01:26:45;;;;;;;5.53;2.12;;;;;;;-1.85;65.89;100462.20;1760121;79;21155;-48
2021/03/24 01:29:14;;;;;;;6.97;2.20;;;;;;;-1.77;65.80;100463.25;1734962;80;22634;-47
2021/03/24 01:31:42;;;;;;;10.55;2.65;;;;;;;-1.71;65.56;100464.37;1772057;79;21161;-47
2021/03/24 01:34:11;;;;;;;6.30;2.02;;;;;;;-1.66;65.32;100466.84;1762915;78;21664;-47
2021/03/24 01:36:39;;;;;;;4.12;2.10;;;;;;;-1.65;65.22;100472.44;1727997;80;21136;-47
2021/03/24 01:39:07;;;;;;;7.70;2.25;;;;;;;-1.65;64.89;100475.86;1748216;80;22096;-47
2021/03/24 01:41:35;;;;;;;7.33;2.50;;;;;;;-1.69;64.79;100481.20;1757889;78;21388;-47
2021/03/24 01:44:03;;;;;;;5.35;2.20;;;;;;;-1.77;64.83;100489.67;1748092;80;21162;-48
2021/03/24 01:46:39;;;;;;;4.85;2.17;;;;;;;-1.85;65.07;100488.14;1763461;78;21168;-48
2021/03/24 01:49:29;;;;;;;5.50;2.00;;;;;;;-1.89;65.18;100494.75;1743397;80;21519;-46
2021/03/24 01:52:05;;;;;;;4.85;2.45;;;;;;;-1.94;65.31;100491.84;1764348;79;21108;-47
2021/03/24 01:54:39;;;;;;;8.35;2.60;;;;;;;-2.03;65.50;100493.39;1767782;80;21845;-47
2021/03/24 01:57:15;;;;;;;8.28;2.60;;;;;;;-2.07;65.69;100491.77;1762540;78;21194;-46
2021/03/24 01:59:45;;;;;;;6.75;2.08;;;;;;;-2.11;65.79;100494.05;1772746;79;21153;-48
2021/03/24 02:02:17;;;;;;;4.70;2.20;;;;;;;-2.13;65.90;100495.41;1763453;79;21123;-47
2021/03/24 02:04:50;;;;;;;9.43;3.10;;;;;;;-2.12;66.07;100497.11;1753531;80;21129;-46
2021/03/24 02:07:23;;;;;;;;;;;;;;;-2.07;66.31;100493.08;1773104;80;21698;-47
2021/03/24 02:10:02;;;;;;;8.33;2.65;;;;;;;-1.98;66.27;100496.70;1735278;80;21299;-47
2021/03/24 02:12:36;;;;;;;6.42;2.30;;;;;;;-1.90;66.12;100494.34;1767092;79;21596;-47
2021/03/24 02:15:09;;;;;;;6.37;2.83;;;;;;;-1.81;66.08;100494.08;1742478;80;21436;-47
2021/03/24 02:17:42;;;;;;;8.80;3.10;;;;;;;-1.75;65.88;100500.39;1734081;80;21375;-47
2021/03/24 02:20:22;;;;;;;6.08;2.50;;;;;;;-1.70;65.70;100501.11;1746741;79;21977;-47
2021/03/24 02:22:54;;;;;;;6.12;2.72;;;;;;;-1.65;65.53;100503.58;1740495;79;21635;-47
2021/03/24 02:25:45;;;;;;;6.87;3.25;;;;;;;-1.67;65.17;100504.08;1748277;79;21644;-47
2021/03/24 02:28:15;;;;;;;8.18;3.65;;;;;;;-1.77;65.31;100500.05;1723920;79;21122;-49
2021/03/24 02:30:45;;;;;;;9.35;3.50;;;;;;;-1.89;65.54;100501.23;1748889;79;21129;-47
2021/03/24 02:33:24;;;;;;;5.60;3.00;;;;;;;-1.97;65.71;100506.19;1745383;79;22296;-47
2021/03/24 02:35:57;;;;;;;5.90;2.70;;;;;;;-2.02;66.01;100510.66;1750819;79;21128;-47
2021/03/24 02:38:26;;;;;;;6.70;2.27;;;;;;;-2.06;66.18;100505.15;1722362;80;21020;-48
2021/03/24 02:40:54;;;;;;;6.40;2.25;;;;;;;-2.06;66.25;100508.20;1740282;79;21121;-48
2021/03/24 02:43:22;;;;;;;7.30;2.75;;;;;;;-2.05;66.17;100508.61;1702834;79;22017;-48
2021/03/24 02:45:50;;;;;;;4.85;2.47;;;;;;;-2.08;66.22;100506.50;1711569;81;21876;-47
2021/03/24 02:48:28;;;;;;;5.03;2.42;;;;;;;-2.08;66.33;100516.02;1738001;79;21193;-47
2021/03/24 02:50:57;;;;;;;7.60;2.52;;;;;;;-2.06;66.64;100520.71;1718450;80;21898;-47
2021/03/24 02:53:26;;;;;;;10.10;2.80;;;;;;;-1.99;66.50;100518.35;1735450;79;21144;-47
2021/03/24 02:55:56;;;;;;;5.90;3.10;;;;;;;-1.89;66.43;100514.20;1697623;79;21130;-47
2021/03/24 02:58:24;;;;;;;7.75;2.52;;;;;;;-1.79;66.23;100520.84;1737914;79;21848;-47
2021/03/24 03:00:52;;;;;;;6.17;2.72;;;;;;;-1.71;65.69;100525.82;1733081;79;21491;-48
2021/03/24 03:03:24;;;;;;;5.75;2.37;;;;;;;-1.66;65.58;100523.48;1746377;79;21640;-48
2021/03/24 03:05:58;;;;;;;4.65;2.08;;;;;;;-1.59;65.49;100528.49;1737332;79;22113;-48
2021/03/24 03:08:34;;;;;;;;;;;;;;;-1.56;65.01;100529.70;1740997;79;21145;-48
2021/03/24 03:11:16;;;;;;;5.03;2.17;;;;;;;-1.62;64.93;100532.05;1737884;79;21367;-47
2021/03/24 03:14:07;;;;;;;6.97;2.52;;;;;;;-1.75;65.04;100535.42;1743830;79;21487;-48
2021/03/24 03:16:45;;;;;;;7.37;2.62;;;;;;;-1.89;65.35;100533.66;1740089;79;21148;-48
2021/03/24 03:19:34;;;;;;;6.05;2.85;;;;;;;-2.00;65.70;100534.81;1741007;79;21634;-48
2021/03/24 03:22:22;;;;;;;10.05;2.70;;;;;;;-2.07;65.88;100534.58;1742127;79;21511;-47
2021/03/24 03:24:58;;;;;;;7.08;2.67;;;;;;;-2.11;66.14;100539.44;1737502;79;22091;-48
2021/03/24 03:27:29;;;;;;;7.62;3.37;;;;;;;-2.13;66.28;100535.61;1742053;80;21624;-48
2021/03/24 03:29:58;;;;;;;6.22;2.47;;;;;;;-2.15;66.16;100541.74;1723268;80;21127;-48
2021/03/24 03:32:26;;;;;;;4.80;2.30;;;;;;;-2.18;66.23;100541.36;1732210;80;21132;-47
2021/03/24 03:35:00;;;;;;;5.67;2.40;;;;;;;-2.18;66.34;100545.72;1727922;78;21133;-47
2021/03/24 03:37:28;;;;;;;7.28;2.30;;;;;;;-2.15;66.62;100549.52;1746931;80;21392;-47
2021/03/24 03:39:57;;;;;;;5.97;2.35;;;;;;;-2.05;66.43;100548.81;1755859;78;21383;-47
2021/03/24 03:42:25;;;;;;;3.10;1.87;;;;;;;-2.01;66.21;100546.08;1737178;80;21133;-47
2021/03/24 03:44:54;;;;;;;5.22;2.20;;;;;;;-1.95;66.17;100550.27;1721623;80;21406;-47
2021/03/24 03:47:23;;;;;;;3.33;2.17;;;;;;;-1.91;66.02;100551.02;1744171;80;21540;-47
2021/03/24 03:49:51;;;;;;;5.40;2.40;;;;;;;-1.87;65.93;100556.53;1743899;80;21360;-47
2021/03/24 03:52:28;;;;;;;7.10;2.12;;;;;;;-1.83;65.87;100556.84;1723630;80;21651;-47
2021/03/24 03:55:21;;;;;;;4.00;2.12;;;;;;;-1.80;65.48;100558.92;1760173;78;21538;-47
2021/03/24 03:57:54;;;;;;;7.37;1.90;;;;;;;-1.85;65.38;100561.23;1747512;80;21160;-47
2021/03/24 04:00:31;;;;;;;5.17;2.33;;;;;;;-1.95;65.42;100556.75;1758939;78;21132;-47
2021/03/24 04:03:15;;;;;;;4.50;2.30;;;;;;;-2.05;65.65;100554.84;1772430;79;21526;-48
2021/03/24 04:05:57;;;;;;;5.58;1.98;;;;;;;-2.13;65.83;100555.06;1768089;79;21168;-47
2021/03/24 04:08:29;;;;;;;6.67;2.42;;;;;;;-2.16;66.11;100556.44;1730780;81;21149;-47
2021/03/24 04:11:05;;;;;;;3.33;1.98;;;;;;;-2.17;66.14;100557.79;1742896;79;21489;-47
2021/03/24 04:13:37;;;;;;;4.45;2.30;;;;;;;-2.18;66.22;100562.57;1744873;79;21132;-47
2021/03/24 04:16:06;;;;;;;4.95;2.42;;;;;;;-2.19;66.36;100568.65;1746902;79;21401;-47
2021/03/24 04:18:44;;;;;;;5.30;2.40;;;;;;;-2.18;66.34;100563.41;1738437;81;21136;-47
2021/03/24 04:21:12;;;;;;;4.95;2.15;;;;;;;-2.17;66.36;100563.81;1746226;79;21250;-47
2021/03/24 04:23:46;;;;;;;7.08;2.75;;;;;;;-2.11;66.60;100569.27;1722369;80;21393;-47
2021/03/24 04:26:46;;;;;;;4.00;1.85;;;;;;;-2.02;66.45;100570.31;1739065;79;22028;-47
2021/03/24 04:29:28;;;;;;;9.10;3.15;;;;;;;-1.94;66.35;100581.80;1739207;79;21843;-47
2021/03/24 04:31:58;;;;;;;14.93;4.58;;;;;;;-1.86;66.29;100582.87;1743767;79;21132;-47
2021/03/24 04:34:27;;;;;;;15.03;4.87;;;;;;;-1.75;66.27;100591.22;1760523;78;21131;-47
2021/03/24 04:37:25;;;;;;;13.80;4.60;;;;;;;-1.64;66.12;100590.48;1737308;80;21110;-47
2021/03/24 04:40:21;;;;;;;15.25;5.12;;;;;;;-1.57;65.87;100595.03;1745968;79;21116;-47
2021/03/24 04:43:08;;;;;;;9.53;3.70;;;;;;;-1.56;65.40;100600.63;1737089;79;21632;-47
2021/03/24 04:46:05;;;;;;;7.60;3.37;;;;;;;-1.59;65.57;100599.87;1743038;79;21742;-48
2021/03/24 04:48:39;;;;;;;8.68;3.45;;;;;;;-1.61;65.64;100609.45;1742659;79;21147;-47
2021/03/24 04:51:14;;;;;;;7.33;2.70;;;;;;;-1.63;65.74;100612.11;1738857;79;21528;-47
2021/03/24 04:53:47;;;;;;;4.87;2.50;;;;;;;-1.67;65.75;100617.81;1735324;79;21151;-47
2021/03/24 04:56:16;;;;;;;8.68;2.62;;;;;;;-1.68;65.93;100616.11;1741530;79;21183;-48
2021/03/24 04:58:47;;;;;;;5.45;2.42;;;;;;;-1.64;66.02;100622.08;1718153;81;21168;-47
2021/03/24 05:01:26;;;;;;;5.50;2.20;;;;;;;-1.61;65.98;100625.02;1720778;81;21132;-47
2021/03/24 05:03:58;;;;;;;5.05;2.90;;;;;;;-1.57;66.22;100621.45;1737522;79;21161;-47
2021/03/24 05:06:38;;;;;;;6.65;2.70;;;;;;;-1.47;66.24;100631.98;1722322;80;21122;-48
2021/03/24 05:09:07;;;;;;;8.75;2.83;;;;;;;-1.32;66.17;100628.55;1763278;79;22613;-47
2021/03/24 05:11:43;;;;;;;6.25;3.20;;;;;;;-1.17;65.97;100628.53;1762305;79;21187;-47
2021/03/24 05:14:28;;;;;;;6.50;3.10;;;;;;;-1.07;65.33;100635.16;1747804;80;21384;-48
2021/03/24 05:17:13;;;;;;;7.70;3.10;;;;;;;-0.99;65.32;100626.70;1761389;78;21103;-47
2021/03/24 05:19:42;;;;;;;5.60;3.25;;;;;;;-0.91;65.06;100627.75;1774122;79;21494;-46
2021/03/24 05:22:28;;;;;;;7.05;3.00;;;;;;;-0.84;64.75;100635.76;1741264;80;21489;-47
2021/03/24 05:25:07;;;;;;;6.50;2.72;;;;;;;-0.82;64.23;100639.16;1763662;78;21136;-47
2021/03/24 05:27:42;;;;;;;7.28;3.00;;;;;;;-0.83;64.21;100634.02;1774213;79;21943;-47
2021/03/24 05:30:24;;;;;;;7.03;2.72;;;;;;;-0.83;64.22;100640.06;1735832;80;21644;-46
2021/03/24 05:33:25;;;;;;;6.45;3.00;;;;;;;-0.81;64.17;100639.56;1745050;79;21172;-47
2021/03/24 05:36:03;;;;;;;5.85;2.70;;;;;;;-0.83;63.71;100643.95;1714018;79;21424;-47
2021/03/24 05:38:42;;;;;;;4.53;2.90;;;;;;;-0.82;63.84;100630.06;1743240;79;21440;-47
2021/03/24 05:41:39;;;;;;;5.90;2.70;;;;;;;-0.79;63.72;100636.47;1753294;79;21177;-47
2021/03/24 05:44:39;;;;;;;7.25;3.58;;;;;;;-0.71;63.80;100632.78;1823796;76;22621;-46
2021/03/24 05:47:37;;;;;;;8.20;3.98;;;;;;;-0.69;63.87;100641.38;1779144;78;21473;-47
2021/03/24 05:50:58;;;;;;;8.53;3.25;;;;;;;-0.58;64.05;100636.70;1778859;78;21206;-47
2021/03/24 05:54:12;;;;;;;6.35;3.22;;;;;;;-0.45;63.49;100633.24;1784801;78;21554;-48
2021/03/24 05:57:32;;;;;;;6.45;2.80;;;;;;;-0.37;63.00;100639.52;1781369;78;20964;-47
2021/03/24 06:00:22;;;;;;;6.28;2.83;;;;;;;-0.31;62.63;100649.72;1784747;78;21114;-48
2021/03/24 06:03:33;;;;;;;5.87;2.87;;;;;;;-0.27;62.31;100653.92;1786357;78;21550;-51
2021/03/24 06:06:47;;;;;;;10.30;3.20;;;;;;;-0.25;62.29;100665.13;1786654;78;21210;-46
2021/03/24 06:09:33;;;;;;;6.58;3.35;;;;;;;-0.25;62.26;100675.53;1788428;77;21027;-47
2021/03/24 06:12:09;;;;;;;7.35;3.83;;;;;;;-0.24;61.53;100679.84;1781489;77;21655;-47
2021/03/24 06:15:17;;;;;;;7.92;4.03;;;;;;;-0.23;61.62;100679.38;1787144;78;21349;-47
2021/03/24 06:18:14;;;;;;;13.83;6.37;;;;;;;-0.18;61.72;100682.24;1785860;78;21003;-48
2021/03/24 06:20:59;;;;;;;15.28;6.78;;;;;;;-0.13;61.44;100684.67;1776891;79;21618;-48
2021/03/24 06:23:44;;;;;;;10.05;5.20;;;;;;;0.02;61.71;100683.77;1776307;79;21632;-48
2021/03/24 06:26:35;;;;;;;26.75;14.33;;;;;;;0.23;61.54;100684.78;1772417;79;21117;-48
2021/03/24 06:29:34;;;;;;;12.65;6.12;;;;;;;0.42;60.61;100680.64;1779982;79;22091;-48
2021/03/24 06:32:57;;;;;;;19.45;10.88;;;;;;;0.68;60.39;100676.70;1780357;78;21133;-49
2021/03/24 06:35:40;;;;;;;9.48;5.00;;;;;;;0.95;60.71;100669.64;1777727;79;21595;-47
2021/03/24 06:38:45;;;;;;;10.18;4.85;;;;;;;1.37;59.07;100669.79;1774679;79;21136;-48
2021/03/24 06:41:35;;;;;;;7.58;4.40;;;;;;;1.68;59.08;100678.53;1772351;78;21117;-49
2021/03/24 06:44:28;;;;;;;;;;;;;;;2.07;60.14;100674.37;1781937;79;20983;-47
2021/03/24 06:47:21;;;;;;;9.47;3.63;;;;;;;2.49;58.03;100679.95;1754290;79;20297;-47
2021/03/24 06:50:12;;;;;;;6.33;3.55;;;;;;;2.75;56.64;100672.73;1776709;79;22679;-48
2021/03/24 06:52:51;;;;;;;8.90;3.75;;;;;;;2.84;55.23;100674.53;1776930;79;20999;-48
2021/03/24 06:55:47;;;;;;;7.33;3.45;;;;;;;2.90;55.89;100667.72;1774976;79;21145;-47
2021/03/24 06:58:54;;;;;;;7.87;3.67;;;;;;;3.06;55.51;100673.95;1774918;79;21138;-47
2021/03/24 07:01:36;;;;;;;8.78;4.05;;;;;;;3.25;54.99;100666.52;1777334;78;21607;-48
2021/03/24 07:04:55;;;;;;;8.08;3.60;;;;;;;3.42;54.04;100670.11;1772409;78;21472;-47
2021/03/24 07:08:12;;;;;;;7.85;4.12;;;;;;;3.62;54.29;100676.55;1777699;79;21176;-47
2021/03/24 07:11:10;;;;;;;7.00;4.28;;;;;;;3.87;53.41;100683.21;1778552;78;21114;-47
2021/03/24 07:14:35;;;;;;;10.65;4.85;;;;;;;4.25;54.66;100681.73;1777455;79;21129;-47
2021/03/24 07:17:18;;;;;;;8.03;4.08;;;;;;;4.61;53.31;100687.79;1773964;78;21460;-47
2021/03/24 07:20:16;;;;;;;8.70;4.30;;;;;;;5.09;52.44;100687.87;1778681;78;21897;-46
2021/03/24 07:23:20;;;;;;;8.38;3.65;;;;;;;5.28;51.62;100680.30;1775939;79;21416;-46
2021/03/24 07:25:55;;;;;;;6.97;3.62;;;;;;;5.24;49.52;100685.34;1775321;78;21003;-47
2021/03/24 07:28:41;;;;;;;7.90;4.08;;;;;;;4.99;49.93;100687.50;1776702;80;21492;-47
2021/03/24 07:31:32;;;;;;;7.50;4.42;;;;;;;4.91;50.28;100694.11;1778897;78;21122;-47
2021/03/24 07:34:11;;;;;;;8.33;4.00;;;;;;;4.87;48.42;100698.20;1775343;79;21981;-47
2021/03/24 07:37:09;;;;;;;7.37;4.28;;;;;;;4.81;51.14;100707.70;1769384;78;22021;-47
2021/03/24 07:40:08;;;;;;;6.80;3.80;;;;;;;4.90;51.13;100708.98;1775094;78;21476;-47
2021/03/24 07:43:01;;;;;;;6.97;4.00;;;;;;;5.03;49.26;100721.00;1774705;78;21453;-47
2021/03/24 07:45:51;;;;;;;;;;;;;;;5.01;50.52;100714.98;1781464;78;21479;-48
2021/03/24 07:49:01;;;;;;;7.35;4.17;;;;;;;5.19;50.72;100710.51;1774081;79;21195;-47
2021/03/24 07:51:59;;;;;;;7.70;4.22;;;;;;;5.52;51.04;100711.34;1774652;78;21168;-47
2021/03/24 07:54:42;;;;;;;6.37;4.10;;;;;;;5.74;47.65;100706.58;1777243;79;21527;-47
2021/03/24 07:57:52;;;;;;;8.65;4.62;;;;;;;5.66;49.37;100719.78;1775979;78;21615;-49
2021/03/24 08:00:55;;;;;;;6.67;4.17;;;;;;;5.58;48.80;100717.58;1776244;80;22029;-47
2021/03/24 08:03:28;;;;;;;8.45;4.72;;;;;;;5.74;48.54;100716.27;1773765;79;21878;-47
2021/03/24 08:06:38;;;;;;;6.30;3.65;;;;;;;5.82;48.69;100718.44;1783097;79;21173;-46
2021/03/24 08:09:35;;;;;;;9.15;4.60;;;;;;;5.74;48.55;100722.34;1777623;78;21137;-47
2021/03/24 08:12:35;;;;;;;9.58;4.85;;;;;;;5.74;49.69;100718.89;1776088;78;21698;-47
2021/03/24 08:15:26;;;;;;;7.95;4.58;;;;;;;5.97;49.00;100722.81;1774936;78;21384;-48
2021/03/24 08:18:08;;;;;;;9.98;4.53;;;;;;;6.14;48.64;100719.72;1777151;79;21605;-47
2021/03/24 08:21:06;;;;;;;8.05;4.55;;;;;;;6.16;48.36;100725.73;1775549;78;20964;-47
2021/03/24 08:24:18;;;;;;;7.10;4.03;;;;;;;6.25;47.88;100724.34;1774846;78;21617;-47
2021/03/24 08:26:55;;;;;;;8.80;5.12;;;;;;;6.36;44.77;100716.66;1738638;80;21621;-48
2021/03/24 08:29:53;;;;;;;8.18;4.87;;;;;;;6.03;47.23;100721.19;1776587;79;21118;-48
2021/03/24 08:32:39;;;;;;;7.12;4.05;;;;;;;6.05;45.98;100723.26;1778840;80;22694;-48
2021/03/24 08:35:55;;;;;;;6.70;4.00;;;;;;;6.13;47.47;100730.69;1776623;78;21160;-49
2021/03/24 08:39:06;;;;;;;6.33;4.03;;;;;;;6.24;46.93;100726.58;1776111;78;21421;-48
2021/03/24 08:42:12;;;;;;;8.23;4.15;;;;;;;6.32;47.20;100727.84;1773748;78;21126;-48
2021/03/24 08:44:48;;;;;;;10.58;6.80;;;;;;;6.58;48.57;100724.11;1774762;78;21627;-48
2021/03/24 08:47:24;;;;;;;7.50;4.47;;;;;;;6.68;47.25;100723.10;1774759;79;21161;-48
2021/03/24 08:49:56;;;;;;;6.72;3.90;;;;;;;6.59;46.65;100729.75;1774260;79;21144;-48
2021/03/24 08:52:51;;;;;;;6.58;4.10;;;;;;;6.61;47.52;100719.14;1776193;78;21980;-49
2021/03/24 08:55:54;;;;;;;6.17;4.10;;;;;;;6.70;46.80;100724.31;1773101;78;21113;-48
2021/03/24 08:58:29;;;;;;;5.53;4.00;;;;;;;6.65;46.00;100725.43;1772835;78;21442;-49
2021/03/24 09:01:27;;;;;;;5.92;3.67;;;;;;;6.53;46.23;100725.33;1778171;79;21457;-48
2021/03/24 09:04:28;;;;;;;6.97;4.15;;;;;;;6.47;46.88;100735.73;1773393;78;21440;-48
2021/03/24 09:07:08;;;;;;;6.47;4.22;;;;;;;6.38;45.01;100731.02;1773655;79;21133;-48
2021/03/24 09:10:13;;;;;;;6.15;3.95;;;;;;;6.15;45.17;100729.30;1776787;80;21129;-52
2021/03/24 09:13:05;;;;;;;6.60;3.67;;;;;;;5.93;45.44;100733.58;1770680;78;21174;-49
2021/03/24 09:15:56;;;;;;;5.70;3.55;;;;;;;5.84;46.72;100727.91;1776819;80;21162;-48
2021/03/24 09:18:51;;;;;;;6.53;3.95;;;;;;;5.80;47.04;100734.30;1776359;80;21124;-47
2021/03/24 09:21:32;;;;;;;7.78;3.70;;;;;;;5.89;47.98;100725.04;1773555;78;20974;-46
2021/03/24 09:24:19;;;;;;;8.73;4.90;;;;;;;6.28;48.89;100722.39;1772107;80;21598;-48
2021/03/24 09:27:26;;;;;;;6.17;4.12;;;;;;;6.56;44.97;100724.67;1753114;79;21489;-49
2021/03/24 09:30:08;;;;;;;7.22;4.60;;;;;;;6.26;44.76;100722.09;1726556;82;21458;-47
2021/03/24 09:32:40;;;;;;;6.42;4.87;;;;;;;5.96;47.23;100725.52;1729705;81;22145;-47
2021/03/24 09:35:42;;;;;;;10.65;5.67;;;;;;;5.97;46.58;100723.27;1724144;82;21838;-46
2021/03/24 09:38:18;;;;;;;8.50;5.30;;;;;;;5.91;45.94;100726.62;1691959;83;21614;-47
2021/03/24 09:40:52;;;;;;;10.18;5.10;;;;;;;5.74;46.76;100730.23;1692273;83;21174;-48
2021/03/24 09:43:31;;;;;;;8.03;4.80;;;;;;;5.87;47.96;100722.97;1682059;82;21406;-47
2021/03/24 09:46:14;;;;;;;9.15;4.97;;;;;;;6.22;46.92;100714.86;1726197;82;21983;-48
2021/03/24 09:48:56;;;;;;;8.97;5.17;;;;;;;6.67;46.36;100716.14;1833125;75;23366;-47
2021/03/24 09:51:38;;;;;;;7.22;5.10;;;;;;;6.82;44.38;100713.04;1786197;77;20966;-48
2021/03/24 09:54:23;;;;;;;9.23;4.72;;;;;;;6.73;44.54;100714.46;1766998;77;21576;-48
2021/03/24 09:57:08;;;;;;;7.22;4.72;;;;;;;6.57;44.76;100716.33;1794499;77;20994;-48
2021/03/24 09:59:51;;;;;;;9.93;5.28;;;;;;;6.63;45.09;100715.47;1790397;77;21443;-48
2021/03/24 10:02:26;;;;;;;7.00;4.53;;;;;;;6.57;44.62;100721.10;1783655;77;20948;-48
2021/03/24 10:05:00;;;;;;;7.12;4.60;;;;;;;6.38;44.08;100717.88;1793915;77;20966;-49
2021/03/24 10:07:31;;;;;;;6.95;4.22;;;;;;;6.29;44.51;100714.87;1795758;77;22125;-48
2021/03/24 10:10:20;;;;;;;6.75;4.75;;;;;;;6.09;44.53;100715.20;1792401;77;21421;-49
2021/03/24 10:13:25;;;;;;;10.32;4.28;;;;;;;5.96;44.97;100719.81;1790660;77;21109;-49
2021/03/24 10:16:23;;;;;;;7.40;3.87;;;;;;;5.99;44.62;100734.09;1728740;80;21467;-48
2021/03/24 10:19:01;;;;;;;8.53;4.12;;;;;;;6.03;44.08;100726.89;1726942;81;21107;-47
2021/03/24 10:21:52;;;;;;;5.92;3.75;;;;;;;6.02;44.52;100727.83;1714071;81;22042;-47
2021/03/24 10:24:24;;;;;;;6.80;3.75;;;;;;;6.11;45.05;100731.23;1706749;81;21758;-46
2021/03/24 10:27:03;;;;;;;6.35;4.12;;;;;;;6.42;44.79;100721.56;1710144;81;21451;-47
2021/03/24 10:29:48;;;;;;;10.45;4.15;;;;;;;6.59;44.28;100725.80;1705053;81;21166;-47
2021/03/24 10:32:24;;;;;;;4.85;3.55;;;;;;;6.67;43.87;100717.91;1711704;81;21217;-46
2021/03/24 10:35:03;;;;;;;8.90;3.62;;;;;;;6.68;43.95;100718.30;1674132;81;21203;-46
2021/03/24 10:37:56;;;;;;;7.22;3.62;;;;;;;6.63;43.06;100720.73;1704487;81;21644;-46
2021/03/24 10:40:36;;;;;;;7.05;3.10;;;;;;;6.61;44.41;100714.72;1702567;81;21418;-48
2021/03/24 10:43:28;;;;;;;5.50;3.70;;;;;;;6.81;42.70;100711.34;1712813;81;21126;-46
2021/03/24 10:46:16;;;;;;;5.00;3.05;;;;;;;6.87;42.14;100720.19;1654659;81;21126;-46
2021/03/24 10:48:53;;;;;;;4.97;3.10;;;;;;;6.70;41.43;100715.10;1703312;81;22002;-46
2021/03/24 10:51:33;;;;;;;7.55;3.37;;;;;;;6.38;41.29;100728.39;1702761;81;21181;-46
2021/03/24 10:54:21;;;;;;;6.95;3.30;;;;;;;6.29;42.76;100716.20;1711115;81;21170;-46
2021/03/24 10:57:10;;;;;;;5.25;2.85;;;;;;;6.46;43.47;100711.69;1714706;81;22132;-47
2021/03/24 10:59:46;;;;;;;5.15;3.17;;;;;;;6.83;41.53;100719.99;1711005;81;21154;-46
2021/03/24 11:02:42;;;;;;;4.58;2.98;;;;;;;6.87;41.06;100707.52;1710518;81;21226;-49
2021/03/24 11:05:15;;;;;;;5.20;3.02;;;;;;;6.85;40.80;100711.53;1712430;81;21874;-47
2021/03/24 11:07:55;;;;;;;7.55;3.80;;;;;;;6.90;40.78;100709.92;1705222;81;21177;-47
2021/03/24 11:10:48;;;;;;;3.83;2.35;;;;;;;7.01;40.42;100696.95;1720609;81;21649;-48
2021/03/24 11:13:39;;;;;;;5.75;3.12;;;;;;;7.10;40.09;100699.49;1721069;81;21513;-47
2021/03/24 11:16:11;;;;;;;10.85;3.50;;;;;;;7.00;41.25;100693.11;1660910;81;21623;-47
2021/03/24 11:18:49;;;;;;;5.40;2.90;;;;;;;7.19;42.42;100698.91;1706412;81;21715;-47
2021/03/24 11:21:30;;;;;;;4.87;2.75;;;;;;;7.39;39.47;100698.13;1713305;81;21138;-48
2021/03/24 11:24:10;;;;;;;4.47;2.80;;;;;;;7.27;39.81;100700.22;1694000;81;21138;-48
2021/03/24 11:27:05;;;;;;;6.25;3.05;;;;;;;7.14;39.99;100698.36;1710562;81;21670;-47
2021/03/24 11:29:37;;;;;;;6.22;3.85;;;;;;;6.99;40.02;100698.00;1712244;81;21513;-48
2021/03/24 11:32:29;;;;;;;4.62;2.52;;;;;;;6.88;40.79;100689.47;1708535;81;21167;-50
2021/03/24 11:35:09;;;;;;;3.75;1.95;;;;;;;6.96;39.07;100686.34;1707662;81;21207;-48
2021/03/24 11:37:54;;;;;;;4.00;2.33;;;;;;;6.83;37.80;100692.84;1709663;81;21580;-47
2021/03/24 11:40:44;;;;;;;5.00;2.92;;;;;;;6.54;38.41;100694.98;1716175;81;21138;-48
2021/03/24 11:43:25;;;;;;;3.85;2.52;;;;;;;6.57;39.92;100697.91;1708903;81;21623;-47
2021/03/24 11:46:17;;;;;;;5.20;2.58;;;;;;;6.85;40.17;100686.53;1710645;81;25635;-48
2021/03/24 11:49:06;;;;;;;4.08;2.60;;;;;;;7.03;39.59;100688.97;1708210;81;21840;-48
2021/03/24 11:52:24;;;;;;;8.45;4.05;;;;;;;6.98;37.91;100696.31;1715511;81;21178;-47
2021/03/24 11:55:34;;;;;;;6.03;3.47;;;;;;;6.73;39.34;100700.44;1708609;81;21686;-47
2021/03/24 11:58:30;;;;;;;4.25;3.37;;;;;;;6.70;38.96;100690.11;1711208;81;21021;-48
2021/03/24 12:01:20;;;;;;;6.42;2.92;;;;;;;6.83;38.37;100688.91;1705874;81;21194;-48
2021/03/24 12:04:11;;;;;;;4.47;2.58;;;;;;;6.75;38.98;100684.95;1709074;81;21642;-47
2021/03/24 12:07:06;;;;;;;6.80;2.92;;;;;;;6.62;39.89;100683.53;1712443;81;21179;-47
2021/03/24 12:09:38;;;;;;;6.87;3.67;;;;;;;6.70;40.17;100691.42;1703514;81;21426;-47
2021/03/24 12:12:16;;;;;;;6.15;2.95;;;;;;;6.73;39.22;100693.87;1708398;81;21143;-47
2021/03/24 12:14:44;;;;;;;6.67;3.83;;;;;;;6.74;39.81;100692.92;1705284;81;22268;-47
2021/03/24 12:17:35;;;;;;;6.55;3.25;;;;;;;6.81;40.86;100688.98;1708543;81;21042;-47
2021/03/24 12:20:16;;;;;;;6.30;3.90;;;;;;;7.03;40.41;100692.92;1708227;81;21163;-47
2021/03/24 12:22:54;;;;;;;7.00;3.33;;;;;;;7.20;38.77;100700.61;1708894;81;21163;-47
2021/03/24 12:25:30;;;;;;;6.80;3.70;;;;;;;7.22;38.23;100690.83;1702817;81;22040;-47
2021/03/24 12:28:03;;;;;;;5.53;3.05;;;;;;;7.24;38.73;100692.89;1708017;81;21242;-47
2021/03/24 12:30:47;;;;;;;6.25;3.27;;;;;;;7.25;39.00;100692.40;1711830;81;21975;-47
2021/03/24 12:33:22;;;;;;;7.20;4.78;;;;;;;7.22;39.84;100700.50;1706704;81;21193;-47
2021/03/24 12:36:14;;;;;;;8.40;4.55;;;;;;;7.14;38.83;100693.09;1689948;82;21652;-47
2021/03/24 12:38:58;;;;;;;8.40;3.50;;;;;;;7.18;38.78;100699.00;1709821;81;21394;-47
2021/03/24 12:41:34;;;;;;;9.33;4.00;;;;;;;7.14;37.87;100694.86;1705846;81;21142;-48